Flight Track Log - Related Links

Times and Time Zones

All times are in EDT time to prevent confusion due to time zone crossing. See the N589H flight status page for this flight to view local times or setup timezone preferences in your user account.

Time Position Orientation Groundspeed Altitude Reporting Facility
EDT Latitude Longitude Course Direction KTS MPH feet Rate Location/Type
Tue 01:48:06 PM 25.8069 -80.3144 311° West 166 191 700  Level Miami Center
Tue 01:49:14 PM 25.8436 -80.3611 311° West 193 222 2,900 2,000 Climbing Miami Center
Tue 01:50:15 PM 25.8831 -80.3989 319° Northwest 189 217 5,000 2,103 Climbing Miami Center
Tue 01:51:11 PM 25.9222 -80.4278 326° Northwest 189 217 7,000 2,262 Climbing Miami Center
Tue 01:51:16 PM 25.9272 -80.4303 336° Northwest 191 220 7,300 1,619 Climbing Miami Center
Tue 01:52:14 PM 25.9783 -80.4044 24° Northeast 231 266 8,700 1,574 Climbing Miami Center
Tue 01:52:17 PM 25.9903 -80.3958 33° Northeast 251 289 8,900 968 Climbing Miami Center
Tue 01:53:16 PM 26.0458 -80.3628 28° Northeast 279 321 9,700 942 Climbing Miami Center
Tue 01:54:18 PM 26.1292 -80.3844 347° North 269 310 10,800 1,016 Climbing Miami Center
Tue 01:55:20 PM 26.2017 -80.4172 338° Northwest 279 321 11,800 1,056 Climbing Miami Center
Tue 01:56:23 PM 26.2717 -80.4500 337° Northwest 275 316 13,000 1,296 Climbing Miami Center
Tue 01:57:25 PM 26.3400 -80.4822 337° Northwest 271 312 14,500 1,500 Climbing Miami Center
Tue 01:58:27 PM 26.4064 -80.5128 338° Northwest 262 302 16,100 1,632 Climbing Miami Center
Tue 01:59:30 PM 26.4864 -80.5511 337° Northwest 262 302 17,900 1,584 Climbing Miami Center
Tue 02:00:32 PM 26.5522 -80.5825 337° Northwest 259 298 19,400 1,500 Climbing Miami Center
Tue 02:01:34 PM 26.6206 -80.6128 338° Northwest 258 297 21,000 1,500 Climbing Miami Center
Tue 02:02:36 PM 26.6922 -80.6372 343° North 258 297 22,500 1,344 Climbing Miami Center
Tue 02:03:39 PM 26.7608 -80.6631 341° North 253 291 23,800 816 Climbing Miami Center
Tue 02:04:41 PM 26.8383 -80.6917 342° North 275 316 24,200 435 Climbing Miami Center
Tue 02:05:43 PM 26.9178 -80.7211 342° North 296 341 24,700 480 Climbing Miami Center
Tue 02:06:46 PM 27.0003 -80.7514 342° North 308 354 25,200 480 Climbing Miami Center
Tue 02:07:48 PM 27.0844 -80.7831 341° North 317 365 25,700 484 Climbing Miami Center
Tue 02:08:50 PM 27.1694 -80.8144 342° North 318 366 26,200 484 Climbing Miami Center
Tue 02:09:52 PM 27.2522 -80.8458 341° North 316 364 26,700 528 Climbing Miami Center
Tue 02:10:55 PM 27.3511 -80.8825 342° North 316 364 27,300 576 Climbing Miami Center
Tue 02:11:57 PM 27.4344 -80.9139 342° North 316 364 27,900 532 Climbing Miami Center
Tue 02:12:59 PM 27.5133 -80.9489 339° North 310 357 28,400 480 Climbing Miami Center
Tue 02:14:02 PM 27.5956 -80.9794 342° North 311 358 28,900 528 Climbing Miami Center
Tue 02:15:04 PM 27.6953 -81.0028 348° North 309 356 29,500 532 Climbing Miami Center
Tue 02:16:06 PM 27.7772 -81.0228 348° North 305 351 30,000 480 Climbing Miami Center
Tue 02:17:09 PM 27.8586 -81.0428 348° North 302 348 30,500 480 Climbing Miami Center
Tue 02:18:11 PM 27.9381 -81.0625 348° North 298 343 31,000 242 Climbing Miami Center
Tue 02:19:13 PM 28.0178 -81.0828 347° North 296 341 31,000  Level Miami Center
Tue 02:20:15 PM 28.1169 -81.1072 348° North 304 350 31,000  Level Miami Center
Tue 02:21:18 PM 28.2036 -81.1292 347° North 303 349 31,000  Level Miami Center
Tue 02:22:20 PM 28.2911 -81.1514 347° North 306 352 31,000  Level Miami Center
Tue 02:23:22 PM 28.3781 -81.1722 348° North 307 353 31,000  Level Miami Center
Tue 02:24:25 PM 28.4528 -81.1917 347° North 312 359 31,000  Level Miami Center
Tue 02:25:27 PM 28.5561 -81.2178 347° North 314 361 31,000  Level Miami Center
Tue 02:26:29 PM 28.6389 -81.2389 347° North 319 367 31,000  Level Miami Center
Tue 02:27:17 PM 28.7114 -81.2569 348° North 332 382 31,000  Level Jacksonville Center
Tue 02:28:17 PM 28.8014 -81.2814 347° North 339 390 31,000  Level Jacksonville Center
Tue 02:29:17 PM 28.8892 -81.3036 348° North 334 384 31,000  Level Jacksonville Center
Tue 02:30:17 PM 28.9814 -81.3261 348° North 334 384 31,000  Level Jacksonville Center
Tue 02:31:17 PM 29.0736 -81.3506 347° North 334 384 31,000  Level Jacksonville Center
Tue 02:32:17 PM 29.1656 -81.3731 348° North 334 384 31,000  Level Jacksonville Center
Tue 02:33:18 PM 29.2556 -81.3956 348° North 334 384 31,000  Level Jacksonville Center
Tue 02:34:17 PM 29.3478 -81.4178 348° North 334 384 31,000  Level Jacksonville Center
Tue 02:35:17 PM 29.4417 -81.4258 356° North 334 384 31,000  Level Jacksonville Center
Tue 02:36:17 PM 29.5358 -81.4342 356° North 334 384 31,000  Level Jacksonville Center
Tue 02:37:17 PM 29.6319 -81.4328 North 334 384 31,000  Level Jacksonville Center
Tue 02:38:17 PM 29.7422 -81.4119 North 348 400 31,000  Level Jacksonville Center
Tue 02:39:17 PM 29.8403 -81.3983 North 353 406 31,000  Level Jacksonville Center
Tue 02:40:17 PM 29.9381 -81.3825 North 353 406 31,000  Level Jacksonville Center
Tue 02:41:17 PM 30.0339 -81.3667 North 353 406 31,000  Level Jacksonville Center
Tue 02:42:17 PM 30.1342 -81.3531 North 353 406 31,000  Level Jacksonville Center
Tue 02:43:18 PM 30.2300 -81.3394 North 353 406 31,000  Level Jacksonville Center
Tue 02:44:17 PM 30.3258 -81.3258 North 353 406 31,000  Level Jacksonville Center
Tue 02:45:17 PM 30.4236 -81.3097 North 353 406 31,000  Level Jacksonville Center
Tue 02:46:17 PM 30.5175 -81.2939 North 348 400 31,000  Level Jacksonville Center
Tue 02:47:17 PM 30.6064 -81.2247 34° Northeast 354 407 31,000  Level Jacksonville Center
Tue 02:48:17 PM 30.6908 -81.1461 39° Northeast 369 425 31,000  Level Jacksonville Center
Tue 02:49:17 PM 30.7797 -81.0694 37° Northeast 379 436 31,000  Level Jacksonville Center
Tue 02:50:17 PM 30.8642 -80.9928 38° Northeast 384 442 31,000  Level Jacksonville Center
Tue 02:51:17 PM 30.9486 -80.9183 37° Northeast 384 442 31,000  Level Jacksonville Center
Tue 02:52:17 PM 31.0392 -80.8439 35° Northeast 384 442 31,000  Level Jacksonville Center
Tue 02:53:17 PM 31.1258 -80.7692 36° Northeast 384 442 31,000  Level Jacksonville Center
Tue 02:54:17 PM 31.2078 -80.6894 40° Northeast 379 436 31,000  Level Jacksonville Center
Tue 02:55:17 PM 31.2964 -80.6144 36° Northeast 385 443 31,000  Level Jacksonville Center
Tue 02:56:17 PM 31.3847 -80.5392 36° Northeast 385 443 31,000  Level Jacksonville Center
Tue 02:57:17 PM 31.4708 -80.4617 38° Northeast 385 443 31,000  Level Jacksonville Center
Tue 02:58:17 PM 31.5592 -80.3861 36° Northeast 385 443 31,000  Level Jacksonville Center
Tue 02:59:17 PM 31.6453 -80.3083 38° Northeast 390 449 31,000  Level Jacksonville Center
Tue 03:00:17 PM 31.7317 -80.2350 36° Northeast 390 449 31,000  Level Jacksonville Center
Tue 03:01:17 PM 31.8175 -80.1592 37° Northeast 390 449 31,000  Level Jacksonville Center
Tue 03:02:17 PM 31.9056 -80.0783 38° Northeast 385 443 31,000  Level Jacksonville Center
Tue 03:03:17 PM 31.9917 -80.0022 37° Northeast 385 443 31,000  Level Jacksonville Center
Tue 03:04:18 PM 32.0775 -79.9283 36° Northeast 385 443 31,000  Level Jacksonville Center
Tue 03:05:17 PM 32.1614 -79.8494 39° Northeast 385 443 31,000  Level Jacksonville Center
Tue 03:06:17 PM 32.2492 -79.7731 36° Northeast 385 443 31,000  Level Jacksonville Center
Tue 03:07:17 PM 32.3267 -79.7014 38° Northeast 390 449 31,000  Level Jacksonville Center
Tue 03:08:17 PM 32.4125 -79.6247 37° Northeast 384 442 31,000  Level Jacksonville Center
Tue 03:09:17 PM 32.4961 -79.5478 38° Northeast 384 442 31,000  Level Jacksonville Center
Tue 03:10:17 PM 32.5817 -79.4706 37° Northeast 384 442 31,000  Level Jacksonville Center
Tue 03:11:18 PM 32.6672 -79.3933 37° Northeast 384 442 31,000 -100 Level Jacksonville Center
Tue 03:12:17 PM 32.7528 -79.3161 37° Northeast 384 442 30,800 -605 Descending Jacksonville Center
Tue 03:13:17 PM 32.8361 -79.2386 38° Northeast 384 442 29,800 -1,000 Descending Jacksonville Center
Tue 03:14:17 PM 32.9236 -79.1608 37° Northeast 384 442 28,800 -1,150 Descending Jacksonville Center
Tue 03:15:17 PM 33.0067 -79.0831 38° Northeast 379 436 27,500 -1,500 Descending Jacksonville Center
Tue 03:16:17 PM 33.0900 -79.0075 37° Northeast 379 436 25,800 -1,650 Descending Jacksonville Center
Tue 03:17:17 PM 33.1733 -78.9319 37° Northeast 374 430 24,200 -1,600 Descending Jacksonville Center
Tue 03:18:17 PM 33.2525 -78.8614 37° Northeast 369 425 22,600 -1,550 Descending Jacksonville Center
Tue 03:19:17 PM 33.3272 -78.7858 40° Northeast 363 418 21,100 -1,600 Descending Jacksonville Center
Tue 03:20:17 PM 33.4022 -78.7153 38° Northeast 353 406 19,400 -1,650 Descending Jacksonville Center
Tue 03:21:17 PM 33.4792 -78.6469 37° Northeast 348 400 17,800 -1,550 Descending Jacksonville Center
Tue 03:22:17 PM 33.5500 -78.5836 37° Northeast 332 382 16,300 -1,550 Descending Jacksonville Center
Tue 03:23:17 PM 33.6208 -78.5231 35° Northeast 327 376 14,700 -1,650 Descending Jacksonville Center
Tue 03:24:17 PM 33.6858 -78.4672 36° Northeast 302 348 13,000 -1,650 Descending Jacksonville Center
Tue 03:25:17 PM 33.7506 -78.4117 36° Northeast 289 333 11,400 -1,600 Descending Jacksonville Center
Tue 03:27:00 PM 33.8573 -78.2760 40° Northeast  Level FlightAware
Tue 03:34:00 PM 34.2667 -77.9000 32° Northeast  Level FlightAware
Tue 03:35:00 PM 34.2711 -77.9029 32° Northeast  Level Estimated
Tue 03:36:00 PM 34.2667 -77.9000 32° Northeast  Level FlightAware
Tue 03:37:00 PM 34.2711 -77.9029 32° Northeast  Level Estimated

Login

Don't have an account? Register now (free) for customized features, flight alerts, and more!